Latest Weather Observations for Cleve Airport

IDS60801

Issued at 2:01 pm CST Sunday 5 April 2020 (issued every 10 minutes, with the page automatically refreshed every 10 minutes)

About weather observations | Map of weather stations | Latest weather observations for SA | Other Formats
Station Details ID: 018116 Name: CLEVE AERODROME Lat: -33.71 Lon: 136.50 Height: 175.0 m
Data from the previous 72 hours. | See also: Recent months at Cleve Airport
Date/Time
CST
Temp
°C
App
Temp
°C
Dew
Point
°C
Rel
Hum
%
Delta-T
°C
Wind Press
QNH
hPa
Press
MSL
hPa
Rain since
9am
mm
Dir  Spd
km/h
Gust
km/h
Spd
kts
Gust
kts
05/02:00pm 18.9 13.8 9.1 53 5.2 WSW 26 39 14 21 1017.8 1017.5 0.0
05/01:30pm 18.7 13.8 9.8 56 4.8 WSW 26 35 14 19 1018.1 1017.7 0.0
05/01:00pm 18.6 13.3 9.9 57 4.7 WSW 28 44 15 24 1018.4 1018.0 0.0
05/12:30pm 18.6 13.3 9.9 57 4.7 WSW 28 39 15 21 1018.5 1018.1 0.0
05/12:00pm 17.5 13.2 10.9 65 3.6 WSW 24 33 13 18 1018.8 1018.4 0.0
05/11:30am 16.5 11.6 11.4 72 2.8 W 28 43 15 23 1019.1 1018.7 0.0
05/11:00am 16.7 12.3 10.3 66 3.4 WSW 24 32 13 17 1019.0 1018.6 0.0
05/10:30am 16.8 12.1 10.6 67 3.3 WSW 26 37 14 20 1019.2 1018.8 0.0
05/10:00am 15.2 9.8 11.0 76 2.3 W 30 39 16 21 1019.2 1018.8 0.0
05/09:30am 15.3 11.2 11.3 77 2.2 W 24 37 13 20 1019.2 1018.8 0.0
05/09:00am 14.5 10.8 11.5 82 1.6 W 22 32 12 17 1019.0 1018.6 0.0
05/08:30am 13.1 9.5 11.7 91 0.8 W 22 32 12 17 1018.7 1018.3 0.0
05/08:00am 12.6 8.8 11.0 90 0.8 W 22 30 12 16 1018.8 1018.4 0.0
05/07:30am 12.4 8.7 10.3 87 1.1 W 20 24 11 13 1018.1 1017.7 0.0
05/07:00am 11.9 8.7 10.1 89 0.9 WNW 17 24 9 13 1017.7 1017.4 0.0
05/06:30am 11.4 8.2 10.0 91 0.7 WNW 17 24 9 13 1017.3 1017.0 0.0
05/06:00am 11.6 7.9 10.0 90 0.8 WNW 20 26 11 14 1017.0 1016.6 0.0
05/05:30am 11.4 8.2 9.8 90 0.8 WNW 17 22 9 12 1016.7 1016.3 0.0
05/05:00am 11.5 7.7 9.9 90 0.8 W 20 28 11 15 1016.4 1016.0 0.0
05/04:30am 11.9 8.2 10.1 89 0.9 WNW 20 28 11 15 1016.4 1016.0 0.0
05/04:00am 11.6 7.4 9.9 89 0.9 WNW 22 30 12 16 1016.3 1015.9 0.0
05/03:30am 11.4 8.2 9.8 90 0.8 WNW 17 24 9 13 1016.2 1015.8 0.0
05/03:00am 11.8 8.1 10.2 90 0.8 WNW 20 28 11 15 1016.3 1015.9 0.0
05/03:30am 11.6 7.9 10.2 91 0.7 WNW 20 26 11 14 1016.6 1016.2 0.0
05/03:00am 11.5 7.9 9.9 90 0.8 WNW 19 24 10 13 1016.6 1016.2 0.0
05/02:30am 11.5 8.3 10.1 91 0.7 WNW 17 22 9 12 1016.7 1016.3 0.0
05/02:00am 11.8 8.2 10.0 89 0.9 W 19 24 10 13 1016.7 1016.3 0.0
05/01:30am 11.7 7.2 10.1 90 0.8 W 24 30 13 16 1016.7 1016.3 0.0
05/01:00am 11.9 8.1 9.8 87 1.1 WNW 20 26 11 14 1016.8 1016.4 0.0
05/12:30am 12.0 8.3 10.1 88 1.0 WNW 20 28 11 15 1017.1 1016.7 0.0
05/12:00am 12.1 8.6 10.3 89 0.9 WNW 19 26 10 14 1017.2 1016.8 0.0
 
Date/Time
CST
Temp
°C
App
Temp
°C
Dew
Point
°C
Rel
Hum
%
Delta-T
°C
Wind Press
QNH
hPa
Press
MSL
hPa
Rain since
9am
mm
Dir  Spd
km/h
Gust
km/h
Spd
kts
Gust
kts
04/11:30pm 12.5 9.0 10.2 86 1.2 W 19 24 10 13 1017.2 1016.8 0.0
04/11:00pm 12.6 8.5 10.1 85 1.3 W 22 35 12 19 1017.1 1016.7 0.0
04/10:30pm 12.7 9.1 9.7 82 1.5 W 19 24 10 13 1017.3 1017.0 0.0
04/10:00pm 13.0 9.3 9.4 79 1.8 W 19 24 10 13 1017.1 1016.7 0.0
04/09:30pm 13.5 10.3 9.9 79 1.9 W 17 24 9 13 1017.0 1016.6 0.0
04/09:00pm 13.6 9.9 9.6 77 2.1 WSW 19 26 10 14 1016.8 1016.4 0.0
04/08:30pm 13.9 10.2 9.5 75 2.3 WSW 19 24 10 13 1016.4 1016.0 0.0
04/08:00pm 14.3 11.1 9.9 75 2.3 W 17 20 9 11 1016.0 1015.6 0.0
04/07:30pm 14.4 10.8 9.8 74 2.4 W 19 24 10 13 1015.8 1015.4 0.0
04/07:00pm 14.9 10.5 9.1 68 3.0 WSW 22 32 12 17 1015.5 1015.1 0.0
04/06:30pm 14.9 7.1 9.7 71 2.7 WSW 41 54 22 29 1015.1 1014.7 0.0
04/06:22pm 15.7 9.2 9.1 65 3.4 WSW 33 54 18 29 1014.9 1014.5 0.0
04/06:00pm 17.1 10.1 8.3 56 4.5 WSW 35 46 19 25 1014.4 1014.0 0.0
04/05:30pm 18.1 11.3 6.9 48 5.6 WSW 32 41 17 22 1014.2 1013.8 0.0
04/05:00pm 18.2 10.5 7.0 48 5.7 WSW 37 50 20 27 1014.0 1013.6 0.0
04/04:30pm 17.5 9.8 7.0 50 5.3 WSW 37 46 20 25 1013.9 1013.5 0.0
04/04:00pm 19.3 12.5 7.7 47 6.0 WSW 33 48 18 26 1013.7 1013.3 0.0
04/03:48pm 17.6 10.1 7.9 53 5.0 WSW 37 48 20 26 1013.8 1013.4 0.0
04/03:30pm 17.0 11.7 9.7 62 3.9 SW 28 35 15 19 1013.7 1013.3 0.0
04/03:00pm 18.0 11.2 7.7 51 5.3 WSW 33 50 18 27 1013.6 1013.2 0.0
04/02:30pm 17.6 10.9 9.5 59 4.3 W 35 46 19 25 1013.6 1013.2 0.0
04/02:23pm 17.1 10.7 9.3 60 4.1 W 33 46 18 25 1013.6 1013.2 0.0
04/02:00pm 17.5 10.0 8.1 54 4.8 WSW 37 50 20 27 1013.7 1013.3 0.0
04/01:50pm 17.0 9.7 10.1 64 3.7 SW 39 61 21 33 1013.6 1013.2 0.0
04/01:30pm 15.8 8.2 9.0 64 3.5 SW 39 48 21 26 1013.9 1013.5 0.0
04/01:16pm 16.7 10.4 9.6 63 3.7 WSW 33 57 18 31 1013.8 1013.4 0.0
04/01:00pm 17.6 10.7 9.0 57 4.5 W 35 52 19 28 1013.8 1013.4 0.0
04/12:30pm 17.8 10.7 9.7 59 4.3 SW 37 46 20 25 1013.6 1013.2 0.0
04/12:00pm 15.9 9.8 9.8 67 3.2 SW 32 43 17 23 1013.8 1013.4 0.0
04/11:42am 15.3 8.2 9.7 69 2.9 WSW 37 56 20 30 1013.9 1013.5 0.0
04/11:30am 15.7 9.6 9.6 67 3.2 WSW 32 44 17 24 1014.0 1013.6 0.0
04/11:00am 14.8 9.0 10.8 77 2.1 WSW 32 43 17 23 1013.9 1013.5 0.0
04/10:30am 14.3 8.9 10.9 80 1.8 WSW 30 41 16 22 1014.0 1013.6 0.0
04/10:00am 13.8 9.1 10.6 81 1.7 W 26 37 14 20 1013.6 1013.2 0.0
04/09:30am 13.3 8.8 9.9 80 1.8 W 24 39 13 21 1013.3 1012.9 0.0
04/09:00am 12.1 8.3 9.7 85 1.2 W 20 28 11 15 1012.9 1012.5 7.4
04/08:30am 11.5 7.1 8.9 84 1.3 W 22 28 12 15 1012.4 1011.9 7.4
04/08:00am 10.9 6.8 8.7 86 1.1 W 20 30 11 16 1011.9 1011.5 7.4
04/07:30am 10.3 6.3 8.1 86 1.1 W 19 24 10 13 1011.6 1011.2 7.4
04/07:00am 10.4 6.4 8.2 86 1.1 W 19 24 10 13 1011.1 1010.7 7.4
04/06:30am 10.9 6.7 8.3 84 1.3 W 20 28 11 15 1010.9 1010.5 7.4
04/06:00am 10.7 6.5 8.3 85 1.2 WSW 20 26 11 14 1010.5 1010.1 7.4
04/05:30am 11.0 6.2 8.8 86 1.1 W 24 30 13 16 1010.0 1009.6 7.4
04/05:00am 11.0 7.1 9.3 89 0.9 W 20 30 11 16 1009.7 1009.3 7.4
04/04:30am 11.2 7.4 9.8 91 0.7 W 20 26 11 14 1009.4 1009.0 7.4
04/04:00am 11.4 7.7 10.1 92 0.7 W 20 30 11 16 1009.3 1008.9 7.4
04/03:30am 11.6 7.2 10.3 92 0.7 W 24 33 13 18 1009.2 1008.8 7.4
04/03:00am 11.6 6.7 10.0 90 0.8 W 26 39 14 21 1009.1 1008.7 7.4
04/02:30am 11.5 6.6 9.9 90 0.8 WSW 26 33 14 18 1009.1 1008.7 7.4
04/02:00am 11.5 7.0 9.9 90 0.8 W 24 33 13 18 1009.0 1008.6 7.4
04/01:30am 11.2 7.0 9.6 90 0.8 W 22 28 12 15 1008.9 1008.5 7.4
04/01:00am 11.4 6.0 9.5 88 1.0 W 28 35 15 19 1008.7 1008.3 7.4
04/12:30am 11.5 6.0 9.2 86 1.2 W 28 39 15 21 1008.6 1008.2 7.4
04/12:00am 11.8 7.1 9.4 85 1.2 W 24 32 13 17 1008.5 1008.1 7.4
 
Date/Time
CST
Temp
°C
App
Temp
°C
Dew
Point
°C
Rel
Hum
%
Delta-T
°C
Wind Press
QNH
hPa
Press
MSL
hPa
Rain since
9am
mm
Dir  Spd
km/h
Gust
km/h
Spd
kts
Gust
kts
03/11:30pm 12.0 6.9 9.2 83 1.4 W 26 39 14 21 1008.4 1008.0 7.4
03/11:00pm 12.1 7.4 9.3 83 1.4 W 24 33 13 18 1008.0 1007.6 7.4
03/10:30pm 12.3 7.3 9.7 84 1.3 W 26 35 14 19 1007.8 1007.4 7.4
03/10:00pm 12.2 7.7 9.9 86 1.2 W 24 33 13 18 1007.6 1007.2 7.4
03/09:30pm 12.2 7.7 9.9 86 1.2 WNW 24 32 13 17 1007.4 1006.9 7.4
03/09:00pm 12.9 7.7 10.3 84 1.4 W 28 35 15 19 1007.1 1006.6 7.4
03/08:30pm 13.4 8.4 9.6 78 2.0 W 26 32 14 17 1006.7 1006.2 7.4
03/08:00pm 13.8 8.5 9.8 77 2.1 WSW 28 39 15 21 1006.3 1005.8 7.4
03/07:30pm 14.0 9.1 11.3 84 1.5 WSW 28 41 15 22 1005.5 1005.1 7.4
03/07:00pm 14.4 8.2 11.4 82 1.6 SW 35 46 19 25 1005.0 1004.6 7.4
03/06:30pm 14.5 9.0 11.8 84 1.5 WSW 32 41 17 22 1004.3 1003.9 7.4
03/06:00pm 14.6 9.1 12.5 87 1.2 WSW 33 46 18 25 1004.2 1003.8 7.4
03/05:30pm 14.6 8.4 12.8 89 1.0 W 37 50 20 27 1003.7 1003.3 7.4
03/05:00pm 14.7 9.9 12.9 89 1.0 W 30 39 16 21 1003.4 1003.0 6.8
03/04:30pm 15.0 9.9 13.2 89 1.0 W 32 44 17 24 1003.1 1002.7 6.6
03/04:00pm 14.8 9.7 13.7 93 0.6 WSW 33 48 18 26 1003.1 1002.7 6.2
03/03:30pm 14.6 5.9 12.5 87 1.2 SW 50 70 27 38 1002.2 1001.7 2.2
03/03:00pm 18.7 12.8 14.8 78 2.3 WSW 39 57 21 31 1001.5 1001.0 0.0
03/02:35pm 22.5 15.0 9.6 44 7.0 W 39 57 21 31 1001.2 1000.7 0.0
03/02:30pm 23.1 16.5 8.4 39 7.9 W 33 46 18 25 1001.2 1000.7 0.0
03/02:00pm 23.8 16.9 6.6 33 8.9 WNW 32 44 17 24 1001.8 1001.3 0.0
03/01:47pm 24.5 18.4 6.7 32 9.3 WNW 28 46 15 25 1001.9 1001.4 0.0
03/01:30pm 24.4 17.5 6.6 32 9.3 W 32 43 17 23 1002.2 1001.7 0.0
03/01:27pm 24.3 17.4 6.6 32 9.2 W 32 50 17 27 1002.2 1001.7 0.0
03/01:00pm 23.9 16.9 6.2 32 9.1 W 32 46 17 25 1002.8 1002.4 0.0
03/12:30pm 23.0 15.9 5.4 32 8.9 W 32 46 17 25 1003.2 1002.8 0.0
03/12:02pm 23.0 16.6 5.4 32 8.9 WNW 28 46 15 25 1003.2 1002.8 0.0
03/12:00pm 23.2 17.3 5.6 32 9.0 WNW 26 37 14 20 1003.3 1002.9 0.0
03/11:30am 21.6 14.4 5.1 34 8.3 WNW 32 41 17 22 1003.6 1003.2 0.0
03/11:00am 20.6 14.4 6.2 39 7.3 WNW 28 44 15 24 1003.8 1003.4 0.0
03/10:30am 20.1 14.7 6.5 41 6.9 WNW 24 35 13 19 1003.9 1003.5 0.0
03/10:00am 19.6 14.6 8.0 47 6.0 WNW 24 32 13 17 1004.0 1003.6 0.0
03/09:30am 18.5 13.7 8.7 53 5.2 NW 24 35 13 19 1004.1 1003.7 0.0
03/09:00am 18.2 13.6 9.5 57 4.6 NW 24 32 13 17 1004.0 1003.6 0.0
03/08:30am 17.8 13.8 9.2 57 4.5 NW 20 32 11 17 1003.9 1003.5 0.0
03/08:00am 16.2 12.5 9.6 65 3.5 NW 19 24 10 13 1003.8 1003.4 0.0
03/07:30am 15.5 12.2 10.9 74 2.5 NNW 19 24 10 13 1003.4 1003.0 0.0
03/07:00am 14.3 12.5 12.2 87 1.1 NNW 13 17 7 9 1003.7 1003.3 0.0
03/06:30am 14.5 12.9 12.7 89 1.0 NNW 13 17 7 9 1004.0 1003.6 0.0
03/06:00am 14.0 13.1 12.6 91 0.8 NNW 9 11 5 6 1004.2 1003.8 0.0
03/05:30am 14.6 13.5 13.1 91 0.8 NW 11 13 6 7 1004.5 1004.1 0.0
03/05:00am 14.8 13.7 13.2 90 0.9 WNW 11 15 6 8 1004.7 1004.3 0.0
03/04:30am 14.8 14.0 13.0 89 1.0 W 9 13 5 7 1004.9 1004.5 0.0
03/04:00am 15.1 16.1 13.1 88 1.1 CALM 0 0 0 0 1005.1 1004.7 0.0
03/03:30am 15.7 15.7 13.5 87 1.2 NNE 6 7 3 4 1005.5 1005.1 0.0
03/03:00am 15.9 15.8 13.2 84 1.5 ENE 6 7 3 4 1005.8 1005.4 0.0
03/02:30am 16.3 16.0 13.4 83 1.6 NE 7 9 4 5 1006.2 1005.7 0.0
03/02:00am 16.5 15.9 13.6 83 1.6 NE 9 13 5 7 1006.3 1005.8 0.0
03/01:30am 16.5 15.6 13.8 84 1.5 NE 11 13 6 7 1006.3 1005.8 0.0
03/01:00am 16.7 16.0 14.3 86 1.4 SW 11 15 6 8 1007.3 1006.8 0.0
03/12:30am 17.0 18.4 14.5 85 1.5 CALM 0 0 0 0 1007.1 1006.6 0.0
03/12:00am 16.7 16.6 14.0 84 1.6 ENE 7 7 4 4 1006.9 1006.4 0.0
 
Date/Time
CST
Temp
°C
App
Temp
°C
Dew
Point
°C
Rel
Hum
%
Delta-T
°C
Wind Press
QNH
hPa
Press
MSL
hPa
Rain since
9am
mm
Dir  Spd
km/h
Gust
km/h
Spd
kts
Gust
kts
02/11:30pm 16.9 17.0 14.0 83 1.7 E 6 7 3 4 1007.3 1006.8 0.0
02/11:00pm 17.2 17.2 14.3 83 1.7 S 7 9 4 5 1008.1 1007.7 0.0
02/10:30pm 17.3 17.2 14.0 81 1.9 S 7 9 4 5 1008.5 1008.1 0.0
02/10:00pm 17.5 17.1 14.0 80 2.0 SSE 9 11 5 6 1008.7 1008.3 0.0
02/09:30pm 17.7 17.0 14.4 81 1.9 ESE 11 15 6 8 1008.5 1008.1 0.0
02/09:00pm 18.0 17.0 14.5 80 2.0 SE 13 17 7 9 1008.4 1008.0 0.0
02/08:30pm 18.4 16.7 13.7 74 2.7 SSE 15 17 8 9 1008.3 1007.9 0.0
02/08:00pm 18.8 16.7 12.5 67 3.5 ESE 15 19 8 10 1007.8 1007.4 0.0
02/07:30pm 19.3 16.6 11.8 62 4.2 SE 17 20 9 11 1007.5 1007.1 0.0
02/07:00pm 20.2 17.1 11.7 58 4.7 ESE 19 22 10 12 1007.4 1006.9 0.0
02/06:30pm 21.2 18.4 11.2 53 5.6 ESE 17 22 9 12 1007.2 1006.7 0.0
02/06:00pm 21.9 19.9 12.7 56 5.3 ESE 15 20 8 11 1007.1 1006.6 0.0
02/05:30pm 22.3 19.8 13.4 57 5.2 E 19 24 10 13 1007.1 1006.6 0.0
02/05:00pm 22.8 20.2 13.8 57 5.3 ESE 20 30 11 16 1007.2 1006.7 0.0
02/04:30pm 23.4 20.7 13.6 54 5.8 SE 20 33 11 18 1007.2 1006.7 0.0
02/04:00pm 24.4 23.9 12.7 48 6.8 E 7 13 4 7 1007.2 1006.7 0.0
02/03:30pm 23.5 22.4 11.9 48 6.6 ENE 9 17 5 9 1007.5 1007.1 0.0

Other formats

Comma delimited format used in spreadsheet applications
http://www.bom.gov.au/fwo/IDS60801/IDS60801.94662.axf

JavaScript Object Notation format (JSON) in row-major order
http://www.bom.gov.au/fwo/IDS60801/IDS60801.94662.json

Data quality

Most of these data are generated automatically and are frequently updated. Quality checks on data are not normally performed. It is possible for incorrect values to appear. Refer to information at About Latest Weather Observations and please check the disclaimer before using these data.